MSC Luisa — H9XU — position and weather

sailwx.info

Track history (hours):
 
Tides and Currents Weather Stations Pressure Air Temp Water Temp Dewpoint Dewpoint Depression Visibility Wind Speed Wind Dir Waves Ship Positions

MSC Luisa

Last reported at 2017-Jan-12 12:31 UTC. Time now 2017-Jan-16 19:28 UTC.
Position N 31°55' W 080°05'.

Length 300 m; draft 10.1 m.

Type: Ship. MMSI: 355308000.

Date/timePositionNaut miles runAvg speedWind from/ knotsBaromVisibWave heightAir tempDewpointWater temp
2017-Jan-12 12:31N 31°55' W 080°05'9 9.0
2017-Jan-12 11:33N 31°57' W 080°15'9 9.0
2017-Jan-12 10:33N 31°57' W 080°25'9 8.9
2017-Jan-12 09:33N 31°56' W 080°36'8 8.5
2017-Jan-12 08:33N 31°59' W 080°45'10 9.5
2017-Jan-12 07:33N 32°03' W 080°56'8 8.4
2017-Jan-12 06:33N 32°05' W 081°05'4 3.2
2017-Jan-12 05:24N 32°07' W 081°08'0 0.0
2017-Jan-12 04:24N 32°07' W 081°08'0 0.0
2017-Jan-12 03:30N 32°07' W 081°08'0 0.0
2017-Jan-12 02:30N 32°07' W 081°08'0 0.0
2017-Jan-12 01:24N 32°07' W 081°08'0 0.0
2017-Jan-12 00:30N 32°07' W 081°08'0 0.0
2017-Jan-11 23:24N 32°07' W 081°08'0 0.0
2017-Jan-11 22:30N 32°07' W 081°08'0 0.0
2017-Jan-11 21:30N 32°07' W 081°08'0 0.0
2017-Jan-11 20:27N 32°07' W 081°08'0 0.0
2017-Jan-11 19:26N 32°07' W 081°08'0 0.0
2017-Jan-11 18:32N 32°07' W 081°08'0 0.0
2017-Jan-11 17:32N 32°07' W 081°08'0 0.0
2017-Jan-11 16:32N 32°07' W 081°08'0 0.0
2017-Jan-11 15:32N 32°07' W 081°08'0 0.0
2017-Jan-11 14:32N 32°07' W 081°08'0 0.0
2017-Jan-11 13:32N 32°07' W 081°08'0 0.0
2017-Jan-11 12:32N 32°07' W 081°08'0 0.0
2017-Jan-11 11:32N 32°07' W 081°08'6 5.9
2017-Jan-11 10:33N 32°05' W 081°02'1212.1
2017-Jan-11 09:33N 32°01' W 080°48'1110.7
2017-Jan-11 08:33N 31°56' W 080°37'8 7.7
2017-Jan-11 07:33N 31°57' W 080°28'9 9.0
2017-Jan-11 06:33N 31°57' W 080°17'  
2017-Jan-08 16:18N 36°48' W 075°45'6 8.5
2017-Jan-08 15:33N 36°52' W 075°52'8 8.2
2017-Jan-08 14:33N 36°57' W 075°60'5813.0
2017-Jan-08 10:05N 37°55' W 076°09'916.5
2017-Jan-08 09:33N 38°03' W 076°13'5217.0
2017-Jan-08 06:29N 38°55' W 076°23'1415.0
2017-Jan-08 05:33N 39°09' W 076°25'10 9.5
2017-Jan-08 04:33N 39°15' W 076°33'0 0.3
2017-Jan-08 03:28N 39°15' W 076°33'0 0.0
2017-Jan-08 02:10N 39°15' W 076°33'0 0.0
2017-Jan-08 00:31N 39°15' W 076°33'0 0.0
2017-Jan-07 23:22N 39°15' W 076°33'0 0.0
2017-Jan-07 22:31N 39°15' W 076°33'0 0.0
2017-Jan-07 21:22N 39°15' W 076°33'0 0.0
2017-Jan-07 19:31N 39°15' W 076°33'0 0.0
2017-Jan-07 17:25N 39°15' W 076°33'0 0.0
2017-Jan-07 15:28N 39°15' W 076°33'0 0.0
2017-Jan-07 13:25N 39°15' W 076°33'0 0.0
2017-Jan-07 11:28N 39°15' W 076°33'0 0.0
2017-Jan-07 08:19N 39°15' W 076°33'0 0.0
2017-Jan-07 07:25N 39°15' W 076°33'0 0.0
2017-Jan-07 06:19N 39°15' W 076°33'0 0.0
2017-Jan-07 05:25N 39°15' W 076°33'0 0.0
2017-Jan-07 04:25N 39°15' W 076°33'0 0.0
2017-Jan-07 03:31N 39°15' W 076°33'0 0.0
2017-Jan-07 02:04N 39°15' W 076°33'0 0.0
2017-Jan-07 01:33N 39°15' W 076°33'0 0.0
2017-Jan-07 00:33N 39°15' W 076°33'0 0.0
2017-Jan-06 23:33N 39°15' W 076°33'0 0.0
2017-Jan-06 22:33N 39°15' W 076°33'0 0.0
2017-Jan-06 21:33N 39°15' W 076°33'0 0.0
2017-Jan-06 20:33N 39°15' W 076°33'0 0.0
2017-Jan-06 19:33N 39°15' W 076°33'0 0.0
2017-Jan-06 18:33N 39°15' W 076°33'0 0.0
2017-Jan-06 17:33N 39°15' W 076°33'0 0.0
2017-Jan-06 16:33N 39°15' W 076°33'2 2.1
2017-Jan-06 15:33N 39°13' W 076°32'1010.2
2017-Jan-06 14:33N 39°06' W 076°24'1514.7
2017-Jan-06 13:33N 38°51' W 076°24'4715.5
2017-Jan-06 10:30N 38°04' W 076°13'6215.7
2017-Jan-06 06:33N 37°03' W 076°04'1111.0
2017-Jan-06 05:33N 36°55' W 075°55'23111.0
2017-Jan-05 08:33N 40°24' W 073°48'8 7.8
2017-Jan-05 07:33N 40°29' W 073°55'1212.4
2017-Jan-05 06:33N 40°39' W 074°06'3 2.6
2017-Jan-05 05:33N 40°41' W 074°08'1 0.8
2017-Jan-05 04:32N 40°41' W 074°09'0 0.0
2017-Jan-05 03:18N 40°41' W 074°09'0 0.0
2017-Jan-05 02:30N 40°41' W 074°09'0 0.0
2017-Jan-05 01:28N 40°41' W 074°09'0 0.0
2017-Jan-05 00:33N 40°41' W 074°09'0 0.0
2017-Jan-04 23:30N 40°41' W 074°09'0 0.0
2017-Jan-04 22:32N 40°41' W 074°09'0 0.0
2017-Jan-04 21:09N 40°41' W 074°09'0 0.0
2017-Jan-04 20:23N 40°41' W 074°09'0 0.0
2017-Jan-04 19:32N 40°41' W 074°09'0 0.0
2017-Jan-04 18:32N 40°41' W 074°09'0 0.0
2017-Jan-04 17:29N 40°41' W 074°09'0 0.0
2017-Jan-04 16:32N 40°41' W 074°09'0 0.0
2017-Jan-04 15:32N 40°41' W 074°09'0 0.0
2017-Jan-04 14:26N 40°41' W 074°09'0 0.0
2017-Jan-04 13:32N 40°41' W 074°09'0 0.0
2017-Jan-04 12:28N 40°41' W 074°09'0 0.0
2017-Jan-04 11:33N 40°41' W 074°09'0 0.0
2017-Jan-04 10:33N 40°41' W 074°09'0 0.0
2017-Jan-04 09:33N 40°41' W 074°09'0 0.0
2017-Jan-04 08:30N 40°41' W 074°09'0 0.0
2017-Jan-04 07:30N 40°41' W 074°09'0 0.0
2017-Jan-04 06:33N 40°41' W 074°09'0 0.0
2017-Jan-04 05:31N 40°41' W 074°09'0 0.0
2017-Jan-04 04:29N 40°41' W 074°09'0 0.0
2017-Jan-04 03:33N 40°41' W 074°09'0 0.0
2017-Jan-04 02:32N 40°41' W 074°09'0 0.0
2017-Jan-04 01:24N 40°41' W 074°09'0 0.0
2017-Jan-04 00:32N 40°41' W 074°09'0 0.0
2017-Jan-03 23:31N 40°41' W 074°09'0 0.0
2017-Jan-03 22:26N 40°41' W 074°09'2 1.9
2017-Jan-03 21:33N 40°39' W 074°09'5 5.0
2017-Jan-03 20:33N 40°37' W 074°03'9 8.6
2017-Jan-03 19:32N 40°30' W 073°56'23613.7
2017-Jan-03 02:19N 36°53' W 075°54'7 8.9
2017-Jan-03 01:31N 36°57' W 076°01'1513.9
2017-Jan-03 00:25N 36°58' W 076°20'5 5.7
2017-Jan-02 23:29N 36°52' W 076°21'0 0.0
2017-Jan-02 22:32N 36°52' W 076°21'0 0.0
2017-Jan-02 21:32N 36°52' W 076°21'0 0.0
2017-Jan-02 20:32N 36°52' W 076°21'0 0.0
2017-Jan-02 19:29N 36°52' W 076°21'0 0.0
2017-Jan-02 18:32N 36°52' W 076°21'0 0.0
2017-Jan-02 17:32N 36°52' W 076°21'0 0.0
2017-Jan-02 16:32N 36°52' W 076°21'0 0.0
2017-Jan-02 15:32N 36°52' W 076°21'0 0.0
2017-Jan-02 14:29N 36°52' W 076°21'0 0.0
2017-Jan-02 13:32N 36°52' W 076°21'  
Track history (hours):
 
Tides and Currents Weather Stations Pressure Air Temp Water Temp Dewpoint Dewpoint Depression Visibility Wind Speed Wind Dir Waves Ship Positions

MSC Luisa

Last reported at 2017-Jan-12 12:31 UTC. Time now 2017-Jan-16 19:28 UTC.
Position N 31°55' W 080°05'.

Length 300 m; draft 10.1 m.

Type: Ship. MMSI: 355308000.

Date/timePositionNaut miles runAvg speedWind from/ knotsBaromVisibWave heightAir tempDewpointWater temp
2017-Jan-12 12:31N 31°55' W 080°05'9 9.0
2017-Jan-12 11:33N 31°57' W 080°15'9 9.0
2017-Jan-12 10:33N 31°57' W 080°25'9 8.9
2017-Jan-12 09:33N 31°56' W 080°36'8 8.5
2017-Jan-12 08:33N 31°59' W 080°45'10 9.5
2017-Jan-12 07:33N 32°03' W 080°56'8 8.4
2017-Jan-12 06:33N 32°05' W 081°05'4 3.2
2017-Jan-12 05:24N 32°07' W 081°08'0 0.0
2017-Jan-12 04:24N 32°07' W 081°08'0 0.0
2017-Jan-12 03:30N 32°07' W 081°08'0 0.0
2017-Jan-12 02:30N 32°07' W 081°08'0 0.0
2017-Jan-12 01:24N 32°07' W 081°08'0 0.0
2017-Jan-12 00:30N 32°07' W 081°08'0 0.0
2017-Jan-11 23:24N 32°07' W 081°08'0 0.0
2017-Jan-11 22:30N 32°07' W 081°08'0 0.0
2017-Jan-11 21:30N 32°07' W 081°08'0 0.0
2017-Jan-11 20:27N 32°07' W 081°08'0 0.0
2017-Jan-11 19:26N 32°07' W 081°08'0 0.0
2017-Jan-11 18:32N 32°07' W 081°08'0 0.0
2017-Jan-11 17:32N 32°07' W 081°08'0 0.0
2017-Jan-11 16:32N 32°07' W 081°08'0 0.0
2017-Jan-11 15:32N 32°07' W 081°08'0 0.0
2017-Jan-11 14:32N 32°07' W 081°08'0 0.0
2017-Jan-11 13:32N 32°07' W 081°08'0 0.0
2017-Jan-11 12:32N 32°07' W 081°08'0 0.0
2017-Jan-11 11:32N 32°07' W 081°08'6 5.9
2017-Jan-11 10:33N 32°05' W 081°02'1212.1
2017-Jan-11 09:33N 32°01' W 080°48'1110.7
2017-Jan-11 08:33N 31°56' W 080°37'8 7.7
2017-Jan-11 07:33N 31°57' W 080°28'9 9.0
2017-Jan-11 06:33N 31°57' W 080°17'  
2017-Jan-08 16:18N 36°48' W 075°45'6 8.5
2017-Jan-08 15:33N 36°52' W 075°52'8 8.2
2017-Jan-08 14:33N 36°57' W 075°60'5813.0
2017-Jan-08 10:05N 37°55' W 076°09'916.5
2017-Jan-08 09:33N 38°03' W 076°13'5217.0
2017-Jan-08 06:29N 38°55' W 076°23'1415.0
2017-Jan-08 05:33N 39°09' W 076°25'10 9.5
2017-Jan-08 04:33N 39°15' W 076°33'0 0.3
2017-Jan-08 03:28N 39°15' W 076°33'0 0.0
2017-Jan-08 02:10N 39°15' W 076°33'0 0.0
2017-Jan-08 00:31N 39°15' W 076°33'0 0.0
2017-Jan-07 23:22N 39°15' W 076°33'0 0.0
2017-Jan-07 22:31N 39°15' W 076°33'0 0.0
2017-Jan-07 21:22N 39°15' W 076°33'0 0.0
2017-Jan-07 19:31N 39°15' W 076°33'0 0.0
2017-Jan-07 17:25N 39°15' W 076°33'0 0.0
2017-Jan-07 15:28N 39°15' W 076°33'0 0.0
2017-Jan-07 13:25N 39°15' W 076°33'0 0.0
2017-Jan-07 11:28N 39°15' W 076°33'0 0.0
2017-Jan-07 08:19N 39°15' W 076°33'0 0.0
2017-Jan-07 07:25N 39°15' W 076°33'0 0.0
2017-Jan-07 06:19N 39°15' W 076°33'0 0.0
2017-Jan-07 05:25N 39°15' W 076°33'0 0.0
2017-Jan-07 04:25N 39°15' W 076°33'0 0.0
2017-Jan-07 03:31N 39°15' W 076°33'0 0.0
2017-Jan-07 02:04N 39°15' W 076°33'0 0.0
2017-Jan-07 01:33N 39°15' W 076°33'0 0.0
2017-Jan-07 00:33N 39°15' W 076°33'0 0.0
2017-Jan-06 23:33N 39°15' W 076°33'0 0.0
2017-Jan-06 22:33N 39°15' W 076°33'0 0.0
2017-Jan-06 21:33N 39°15' W 076°33'0 0.0
2017-Jan-06 20:33N 39°15' W 076°33'0 0.0
2017-Jan-06 19:33N 39°15' W 076°33'0 0.0
2017-Jan-06 18:33N 39°15' W 076°33'0 0.0
2017-Jan-06 17:33N 39°15' W 076°33'0 0.0
2017-Jan-06 16:33N 39°15' W 076°33'2 2.1
2017-Jan-06 15:33N 39°13' W 076°32'1010.2
2017-Jan-06 14:33N 39°06' W 076°24'1514.7
2017-Jan-06 13:33N 38°51' W 076°24'4715.5
2017-Jan-06 10:30N 38°04' W 076°13'6215.7
2017-Jan-06 06:33N 37°03' W 076°04'1111.0
2017-Jan-06 05:33N 36°55' W 075°55'23111.0
2017-Jan-05 08:33N 40°24' W 073°48'8 7.8
2017-Jan-05 07:33N 40°29' W 073°55'1212.4
2017-Jan-05 06:33N 40°39' W 074°06'3 2.6
2017-Jan-05 05:33N 40°41' W 074°08'1 0.8
2017-Jan-05 04:32N 40°41' W 074°09'0 0.0
2017-Jan-05 03:18N 40°41' W 074°09'0 0.0
2017-Jan-05 02:30N 40°41' W 074°09'0 0.0
2017-Jan-05 01:28N 40°41' W 074°09'0 0.0
2017-Jan-05 00:33N 40°41' W 074°09'0 0.0
2017-Jan-04 23:30N 40°41' W 074°09'0 0.0
2017-Jan-04 22:32N 40°41' W 074°09'0 0.0
2017-Jan-04 21:09N 40°41' W 074°09'0 0.0
2017-Jan-04 20:23N 40°41' W 074°09'0 0.0
2017-Jan-04 19:32N 40°41' W 074°09'0 0.0
2017-Jan-04 18:32N 40°41' W 074°09'0 0.0
2017-Jan-04 17:29N 40°41' W 074°09'0 0.0
2017-Jan-04 16:32N 40°41' W 074°09'0 0.0
2017-Jan-04 15:32N 40°41' W 074°09'0 0.0
2017-Jan-04 14:26N 40°41' W 074°09'0 0.0
2017-Jan-04 13:32N 40°41' W 074°09'0 0.0
2017-Jan-04 12:28N 40°41' W 074°09'0 0.0
2017-Jan-04 11:33N 40°41' W 074°09'0 0.0
2017-Jan-04 10:33N 40°41' W 074°09'0 0.0
2017-Jan-04 09:33N 40°41' W 074°09'0 0.0
2017-Jan-04 08:30N 40°41' W 074°09'0 0.0
2017-Jan-04 07:30N 40°41' W 074°09'0 0.0
2017-Jan-04 06:33N 40°41' W 074°09'0 0.0
2017-Jan-04 05:31N 40°41' W 074°09'0 0.0
2017-Jan-04 04:29N 40°41' W 074°09'0 0.0
2017-Jan-04 03:33N 40°41' W 074°09'0 0.0
2017-Jan-04 02:32N 40°41' W 074°09'0 0.0
2017-Jan-04 01:24N 40°41' W 074°09'0 0.0
2017-Jan-04 00:32N 40°41' W 074°09'0 0.0
2017-Jan-03 23:31N 40°41' W 074°09'0 0.0
2017-Jan-03 22:26N 40°41' W 074°09'2 1.9
2017-Jan-03 21:33N 40°39' W 074°09'5 5.0
2017-Jan-03 20:33N 40°37' W 074°03'9 8.6
2017-Jan-03 19:32N 40°30' W 073°56'23613.7
2017-Jan-03 02:19N 36°53' W 075°54'7 8.9
2017-Jan-03 01:31N 36°57' W 076°01'1513.9
2017-Jan-03 00:25N 36°58' W 076°20'5 5.7
2017-Jan-02 23:29N 36°52' W 076°21'0 0.0
2017-Jan-02 22:32N 36°52' W 076°21'0 0.0
2017-Jan-02 21:32N 36°52' W 076°21'0 0.0
2017-Jan-02 20:32N 36°52' W 076°21'0 0.0
2017-Jan-02 19:29N 36°52' W 076°21'0 0.0
2017-Jan-02 18:32N 36°52' W 076°21'0 0.0
2017-Jan-02 17:32N 36°52' W 076°21'0 0.0
2017-Jan-02 16:32N 36°52' W 076°21'0 0.0
2017-Jan-02 15:32N 36°52' W 076°21'0 0.0
2017-Jan-02 14:29N 36°52' W 076°21'0 0.0
2017-Jan-02 13:32N 36°52' W 076°21'  

Dump ship's entire track history